sensor_id;sensor_type;location;lat;lon;timestamp;pressure;altitude;pressure_sealevel;temperature;humidity
66021;BME280;52789;59.980;30.346;2022-10-17T00:01:48;100803.22;;;11.37;100.00
66021;BME280;52789;59.980;30.346;2022-10-17T00:04:13;100813.22;;;11.35;100.00
66021;BME280;52789;59.980;30.346;2022-10-17T00:06:39;100784.19;;;11.24;100.00
66021;BME280;52789;59.980;30.346;2022-10-17T00:09:05;100820.22;;;11.36;100.00
66021;BME280;52789;59.980;30.346;2022-10-17T00:11:30;100804.38;;;11.35;100.00
66021;BME280;52789;59.980;30.346;2022-10-17T00:13:56;100809.56;;;11.36;100.00
66021;BME280;52789;59.980;30.346;2022-10-17T00:16:26;100810.88;;;11.32;100.00
66021;BME280;52789;59.980;30.346;2022-10-17T00:18:52;100799.56;;;11.30;100.00
66021;BME280;52789;59.980;30.346;2022-10-17T00:21:19;100801.41;;;11.30;100.00
66021;BME280;52789;59.980;30.346;2022-10-17T00:23:45;100794.22;;;11.30;100.00
66021;BME280;52789;59.980;30.346;2022-10-17T00:26:11;100802.38;;;11.37;100.00
66021;BME280;52789;59.980;30.346;2022-10-17T00:28:37;100802.72;;;11.34;100.00
66021;BME280;52789;59.980;30.346;2022-10-17T00:31:04;100802.91;;;11.32;100.00
66021;BME280;52789;59.980;30.346;2022-10-17T00:33:31;100799.88;;;11.27;100.00
66021;BME280;52789;59.980;30.346;2022-10-17T00:36:14;100791.88;;;11.35;100.00
66021;BME280;52789;59.980;30.346;2022-10-17T00:38:42;100794.53;;;11.43;100.00
66021;BME280;52789;59.980;30.346;2022-10-17T00:41:10;100789.88;;;11.45;100.00
66021;BME280;52789;59.980;30.346;2022-10-17T00:46:25;100788.22;;;11.28;100.00
66021;BME280;52789;59.980;30.346;2022-10-17T00:48:52;100801.03;;;11.25;100.00
66021;BME280;52789;59.980;30.346;2022-10-17T00:51:21;100794.38;;;11.21;100.00
66021;BME280;52789;59.980;30.346;2022-10-17T00:53:48;100796.22;;;11.28;100.00
66021;BME280;52789;59.980;30.346;2022-10-17T00:56:18;100804.56;;;11.33;100.00
66021;BME280;52789;59.980;30.346;2022-10-17T00:58:44;100805.38;;;11.34;100.00
66021;BME280;52789;59.980;30.346;2022-10-17T01:01:10;100797.38;;;11.34;100.00
66021;BME280;52789;59.980;30.346;2022-10-17T01:03:36;100796.38;;;11.27;100.00
66021;BME280;52789;59.980;30.346;2022-10-17T01:06:01;100801.19;;;11.23;100.00
66021;BME280;52789;59.980;30.346;2022-10-17T01:08:29;100797.19;;;11.11;100.00
66021;BME280;52789;59.980;30.346;2022-10-17T01:13:57;100795.53;;;11.18;100.00
66021;BME280;52789;59.980;30.346;2022-10-17T01:22:00;100786.41;;;11.29;100.00
66021;BME280;52789;59.980;30.346;2022-10-17T01:24:46;100788.38;;;11.18;100.00
66021;BME280;52789;59.980;30.346;2022-10-17T01:27:34;100804.19;;;11.12;100.00
66021;BME280;52789;59.980;30.346;2022-10-17T01:32:39;100796.00;;;10.89;100.00
66021;BME280;52789;59.980;30.346;2022-10-17T01:35:15;100797.50;;;10.83;100.00
66021;BME280;52789;59.980;30.346;2022-10-17T01:38:16;100790.00;;;10.79;100.00
66021;BME280;52789;59.980;30.346;2022-10-17T01:43:50;100782.00;;;10.79;100.00
66021;BME280;52789;59.980;30.346;2022-10-17T01:48:51;100785.78;;;10.68;100.00
66021;BME280;52789;59.980;30.346;2022-10-17T01:51:22;100802.13;;;10.73;100.00
66021;BME280;52789;59.980;30.346;2022-10-17T01:53:59;100795.31;;;10.71;100.00
66021;BME280;52789;59.980;30.346;2022-10-17T01:56:26;100780.47;;;10.68;99.88
66021;BME280;52789;59.980;30.346;2022-10-17T01:59:05;100783.50;;;10.73;99.15
66021;BME280;52789;59.980;30.346;2022-10-17T02:01:33;100783.81;;;10.70;99.51
66021;BME280;52789;59.980;30.346;2022-10-17T02:04:02;100788.78;;;10.65;99.02
66021;BME280;52789;59.980;30.346;2022-10-17T02:06:37;100781.78;;;10.64;99.45
66021;BME280;52789;59.980;30.346;2022-10-17T02:11:51;100770.78;;;10.51;99.94
66021;BME280;52789;59.980;30.346;2022-10-17T02:20:19;100790.72;;;11.05;97.97
66021;BME280;52789;59.980;30.346;2022-10-17T02:26:00;100801.19;;;11.15;97.58
66021;BME280;52789;59.980;30.346;2022-10-17T02:28:47;100795.88;;;11.15;96.46
66021;BME280;52789;59.980;30.346;2022-10-17T02:31:15;100805.53;;;11.08;96.99
66021;BME280;52789;59.980;30.346;2022-10-17T02:36:17;100811.16;;;10.89;96.50
66021;BME280;52789;59.980;30.346;2022-10-17T02:38:44;100799.47;;;10.81;96.89
66021;BME280;52789;59.980;30.346;2022-10-17T02:41:14;100806.97;;;10.86;96.58
66021;BME280;52789;59.980;30.346;2022-10-17T02:43:40;100806.97;;;10.86;96.71
66021;BME280;52789;59.980;30.346;2022-10-17T02:46:11;100802.16;;;10.90;96.07
66021;BME280;52789;59.980;30.346;2022-10-17T02:49:21;100803.81;;;10.82;95.88
66021;BME280;52789;59.980;30.346;2022-10-17T02:54:41;100812.75;;;10.65;94.36
66021;BME280;52789;59.980;30.346;2022-10-17T02:57:27;100816.91;;;10.60;93.52
66021;BME280;52789;59.980;30.346;2022-10-17T02:59:56;100809.41;;;10.55;94.00
66021;BME280;52789;59.980;30.346;2022-10-17T03:02:22;100814.72;;;10.55;93.84
66021;BME280;52789;59.980;30.346;2022-10-17T03:04:48;100785.19;;;10.40;93.94
66021;BME280;52789;59.980;30.346;2022-10-17T03:07:14;100797.06;;;10.46;93.42
66021;BME280;52789;59.980;30.346;2022-10-17T03:09:41;100800.56;;;10.46;93.60
66021;BME280;52789;59.980;30.346;2022-10-17T03:12:07;100800.34;;;10.40;93.47
66021;BME280;52789;59.980;30.346;2022-10-17T03:14:32;100797.31;;;10.35;93.53
66021;BME280;52789;59.980;30.346;2022-10-17T03:16:58;100785.69;;;10.36;93.79
66021;BME280;52789;59.980;30.346;2022-10-17T03:19:23;100799.50;;;10.39;93.80
66021;BME280;52789;59.980;30.346;2022-10-17T03:21:49;100800.34;;;10.40;93.88
66021;BME280;52789;59.980;30.346;2022-10-17T03:24:14;100799.16;;;10.34;94.00
66021;BME280;52789;59.980;30.346;2022-10-17T03:26:40;100793.66;;;10.28;94.10
66021;BME280;52789;59.980;30.346;2022-10-17T03:29:05;100783.63;;;10.21;95.03
66021;BME280;52789;59.980;30.346;2022-10-17T03:31:31;100786.59;;;10.18;95.19
66021;BME280;52789;59.980;30.346;2022-10-17T03:33:56;100781.59;;;10.15;95.75
66021;BME280;52789;59.980;30.346;2022-10-17T03:36:22;100783.59;;;10.13;96.53
66021;BME280;52789;59.980;30.346;2022-10-17T03:38:48;100785.03;;;10.08;96.99
66021;BME280;52789;59.980;30.346;2022-10-17T03:41:13;100778.34;;;10.04;97.13
66021;BME280;52789;59.980;30.346;2022-10-17T03:43:39;100772.16;;;9.95;96.81
66021;BME280;52789;59.980;30.346;2022-10-17T03:46:05;100762.00;;;9.90;95.82
66021;BME280;52789;59.980;30.346;2022-10-17T03:48:31;100766.50;;;9.90;95.61
66021;BME280;52789;59.980;30.346;2022-10-17T03:51:05;100767.50;;;9.89;94.90
66021;BME280;52789;59.980;30.346;2022-10-17T03:53:31;100759.50;;;9.89;93.18
66021;BME280;52789;59.980;30.346;2022-10-17T03:56:14;100755.03;;;9.89;91.98
66021;BME280;52789;59.980;30.346;2022-10-17T03:58:40;100753.34;;;9.88;91.39
66021;BME280;52789;59.980;30.346;2022-10-17T04:01:08;100748.03;;;9.88;92.10
66021;BME280;52789;59.980;30.346;2022-10-17T04:03:34;100740.56;;;9.92;91.83
66021;BME280;52789;59.980;30.346;2022-10-17T04:06:00;100741.25;;;9.94;92.61
66021;BME280;52789;59.980;30.346;2022-10-17T04:08:27;100742.59;;;9.98;92.04
66021;BME280;52789;59.980;30.346;2022-10-17T04:10:57;100740.78;;;10.07;91.39
66021;BME280;52789;59.980;30.346;2022-10-17T04:13:23;100739.84;;;10.16;91.54
66021;BME280;52789;59.980;30.346;2022-10-17T04:15:56;100736.72;;;10.20;91.61
66021;BME280;52789;59.980;30.346;2022-10-17T04:18:22;100729.72;;;10.19;91.75
66021;BME280;52789;59.980;30.346;2022-10-17T04:20:48;100735.34;;;10.16;92.14
66021;BME280;52789;59.980;30.346;2022-10-17T04:23:13;100735.13;;;10.10;92.81
66021;BME280;52789;59.980;30.346;2022-10-17T04:25:39;100728.69;;;10.12;93.70
66021;BME280;52789;59.980;30.346;2022-10-17T04:28:04;100722.66;;;10.10;94.19
66021;BME280;52789;59.980;30.346;2022-10-17T04:30:30;100722.72;;;10.18;93.93
66021;BME280;52789;59.980;30.346;2022-10-17T04:32:55;100710.78;;;10.22;93.51
66021;BME280;52789;59.980;30.346;2022-10-17T04:35:21;100701.13;;;10.21;93.50
66021;BME280;52789;59.980;30.346;2022-10-17T04:37:46;100716.63;;;10.34;93.83
66021;BME280;52789;59.980;30.346;2022-10-17T04:40:12;100728.13;;;10.35;93.11
66021;BME280;52789;59.980;30.346;2022-10-17T04:42:37;100731.44;;;10.37;92.73
66021;BME280;52789;59.980;30.346;2022-10-17T04:45:09;100726.13;;;10.37;91.84
66021;BME280;52789;59.980;30.346;2022-10-17T04:47:34;100735.09;;;10.36;92.67
66021;BME280;52789;59.980;30.346;2022-10-17T04:50:00;100738.59;;;10.28;93.23
66021;BME280;52789;59.980;30.346;2022-10-17T04:52:26;100736.09;;;10.27;94.14
66021;BME280;52789;59.980;30.346;2022-10-17T04:54:51;100741.88;;;10.22;94.75
66021;BME280;52789;59.980;30.346;2022-10-17T04:57:18;100740.69;;;10.16;93.83
66021;BME280;52789;59.980;30.346;2022-10-17T04:59:44;100694.84;;;9.97;93.70
66021;BME280;52789;59.980;30.346;2022-10-17T05:02:09;100725.34;;;10.10;92.99
66021;BME280;52789;59.980;30.346;2022-10-17T05:04:35;100728.28;;;9.99;94.33
66021;BME280;52789;59.980;30.346;2022-10-17T05:07:00;100714.97;;;9.91;94.01
66021;BME280;52789;59.980;30.346;2022-10-17T05:09:26;100704.25;;;9.83;94.16
66021;BME280;52789;59.980;30.346;2022-10-17T05:11:52;100711.72;;;9.79;94.38
66021;BME280;52789;59.980;30.346;2022-10-17T05:14:18;100716.53;;;9.76;94.50
66021;BME280;52789;59.980;30.346;2022-10-17T05:16:49;100717.50;;;9.67;95.16
66021;BME280;52789;59.980;30.346;2022-10-17T05:19:17;100719.78;;;9.61;95.33
66021;BME280;52789;59.980;30.346;2022-10-17T05:21:43;100729.13;;;9.66;95.26
66021;BME280;52789;59.980;30.346;2022-10-17T05:24:10;100728.13;;;9.67;95.65
66021;BME280;52789;59.980;30.346;2022-10-17T05:26:38;100725.25;;;9.60;95.34
66021;BME280;52789;59.980;30.346;2022-10-17T05:29:03;100717.88;;;9.54;95.21
66021;BME280;52789;59.980;30.346;2022-10-17T05:31:30;100724.34;;;9.51;95.83
66021;BME280;52789;59.980;30.346;2022-10-17T05:34:00;100720.19;;;9.49;96.33
66021;BME280;52789;59.980;30.346;2022-10-17T05:36:26;100718.38;;;9.49;96.25
66021;BME280;52789;59.980;30.346;2022-10-17T05:42:08;100717.13;;;9.61;96.24
66021;BME280;52789;59.980;30.346;2022-10-17T05:44:33;100709.16;;;9.61;95.53
66021;BME280;52789;59.980;30.346;2022-10-17T05:47:02;100711.03;;;9.69;95.92
66021;BME280;52789;59.980;30.346;2022-10-17T05:49:34;100726.34;;;9.75;95.77
66021;BME280;52789;59.980;30.346;2022-10-17T05:52:05;100719.88;;;9.78;95.04
66021;BME280;52789;59.980;30.346;2022-10-17T05:54:47;100706.91;;;9.83;93.41
66021;BME280;52789;59.980;30.346;2022-10-17T05:57:15;100713.56;;;9.79;93.25
66021;BME280;52789;59.980;30.346;2022-10-17T05:59:40;100723.09;;;9.89;93.29
66021;BME280;52789;59.980;30.346;2022-10-17T06:02:11;100689.94;;;9.76;93.18
66021;BME280;52789;59.980;30.346;2022-10-17T06:04:37;100714.63;;;9.94;91.84
66021;BME280;52789;59.980;30.346;2022-10-17T06:07:05;100706.16;;;9.99;90.82
66021;BME280;52789;59.980;30.346;2022-10-17T06:09:31;100722.31;;;10.05;91.14
66021;BME280;52789;59.980;30.346;2022-10-17T06:11:56;100706.69;;;10.02;89.86
66021;BME280;52789;59.980;30.346;2022-10-17T06:14:22;100713.34;;;10.06;89.97
66021;BME280;52789;59.980;30.346;2022-10-17T06:16:47;100699.88;;;10.08;90.51
66021;BME280;52789;59.980;30.346;2022-10-17T06:19:13;100702.19;;;10.03;90.73
66021;BME280;52789;59.980;30.346;2022-10-17T06:21:38;100707.31;;;9.96;91.08
66021;BME280;52789;59.980;30.346;2022-10-17T06:24:04;100711.31;;;9.92;91.39
66021;BME280;52789;59.980;30.346;2022-10-17T06:26:30;100712.84;;;10.03;91.41
66021;BME280;52789;59.980;30.346;2022-10-17T06:28:55;100694.78;;;10.14;91.20
66021;BME280;52789;59.980;30.346;2022-10-17T06:31:21;100700.81;;;10.24;90.18
66021;BME280;52789;59.980;30.346;2022-10-17T06:33:46;100703.16;;;10.36;89.67
66021;BME280;52789;59.980;30.346;2022-10-17T06:36:12;100702.22;;;10.45;89.51
66021;BME280;52789;59.980;30.346;2022-10-17T06:38:38;100707.22;;;10.56;89.78
66021;BME280;52789;59.980;30.346;2022-10-17T06:41:13;100681.56;;;10.55;89.03
66021;BME280;52789;59.980;30.346;2022-10-17T06:43:42;100694.56;;;10.58;88.74
66021;BME280;52789;59.980;30.346;2022-10-17T06:46:11;100683.41;;;10.54;89.00
66021;BME280;52789;59.980;30.346;2022-10-17T06:48:37;100687.06;;;10.62;89.14
66021;BME280;52789;59.980;30.346;2022-10-17T06:51:04;100685.91;;;10.64;88.37
66021;BME280;52789;59.980;30.346;2022-10-17T06:53:31;100695.88;;;10.62;87.88
66021;BME280;52789;59.980;30.346;2022-10-17T06:56:23;100674.53;;;10.38;89.89
66021;BME280;52789;59.980;30.346;2022-10-17T06:58:49;100693.84;;;10.32;90.15
66021;BME280;52789;59.980;30.346;2022-10-17T07:01:16;100697.78;;;10.19;91.30
66021;BME280;52789;59.980;30.346;2022-10-17T07:03:42;100687.78;;;10.13;91.51
66021;BME280;52789;59.980;30.346;2022-10-17T07:06:08;100687.56;;;10.07;91.36
66021;BME280;52789;59.980;30.346;2022-10-17T07:08:36;100682.22;;;9.99;92.26
66021;BME280;52789;59.980;30.346;2022-10-17T07:11:10;100686.69;;;9.90;93.82
66021;BME280;52789;59.980;30.346;2022-10-17T07:13:35;100694.00;;;9.88;95.16
66021;BME280;52789;59.980;30.346;2022-10-17T07:16:01;100695.25;;;9.76;95.55
66021;BME280;52789;59.980;30.346;2022-10-17T07:18:26;100697.53;;;9.62;94.87
66021;BME280;52789;59.980;30.346;2022-10-17T07:20:53;100699.25;;;9.46;97.08
66021;BME280;52789;59.980;30.346;2022-10-17T07:23:19;100700.72;;;9.40;97.26
66021;BME280;52789;59.980;30.346;2022-10-17T07:25:45;100700.97;;;9.29;98.68
66021;BME280;52789;59.980;30.346;2022-10-17T07:28:10;100703.94;;;9.26;99.50
66021;BME280;52789;59.980;30.346;2022-10-17T07:30:36;100688.91;;;9.17;99.40
66021;BME280;52789;59.980;30.346;2022-10-17T07:33:01;100704.19;;;9.15;100.00
66021;BME280;52789;59.980;30.346;2022-10-17T07:35:27;100710.59;;;9.04;100.00
66021;BME280;52789;59.980;30.346;2022-10-17T07:37:52;100708.69;;;8.96;100.00
66021;BME280;52789;59.980;30.346;2022-10-17T07:40:18;100696.25;;;8.79;100.00
66021;BME280;52789;59.980;30.346;2022-10-17T07:42:43;100698.28;;;8.85;100.00
66021;BME280;52789;59.980;30.346;2022-10-17T07:45:09;100698.22;;;8.77;100.00
66021;BME280;52789;59.980;30.346;2022-10-17T07:47:34;100701.81;;;8.68;100.00
66021;BME280;52789;59.980;30.346;2022-10-17T07:50:01;100692.25;;;8.75;100.00
66021;BME280;52789;59.980;30.346;2022-10-17T07:52:28;100677.97;;;8.58;100.00
66021;BME280;52789;59.980;30.346;2022-10-17T07:54:54;100683.13;;;8.60;100.00
66021;BME280;52789;59.980;30.346;2022-10-17T07:57:19;100676.53;;;8.64;100.00
66021;BME280;52789;59.980;30.346;2022-10-17T07:59:45;100689.44;;;8.59;100.00
66021;BME280;52789;59.980;30.346;2022-10-17T08:02:30;100687.91;;;8.56;100.00
66021;BME280;52789;59.980;30.346;2022-10-17T08:04:55;100688.91;;;8.55;100.00
66021;BME280;52789;59.980;30.346;2022-10-17T08:07:22;100690.03;;;8.53;100.00
66021;BME280;52789;59.980;30.346;2022-10-17T08:09:47;100661.50;;;8.37;100.00
66021;BME280;52789;59.980;30.346;2022-10-17T08:12:14;100684.72;;;8.53;100.00
66021;BME280;52789;59.980;30.346;2022-10-17T08:14:40;100677.59;;;8.53;100.00
66021;BME280;52789;59.980;30.346;2022-10-17T08:17:06;100667.28;;;8.50;100.00
66021;BME280;52789;59.980;30.346;2022-10-17T08:19:31;100686.09;;;8.57;100.00
66021;BME280;52789;59.980;30.346;2022-10-17T08:21:57;100671.47;;;8.53;100.00
66021;BME280;52789;59.980;30.346;2022-10-17T08:24:24;100677.75;;;8.52;100.00
66021;BME280;52789;59.980;30.346;2022-10-17T08:26:50;100695.97;;;8.47;100.00
66021;BME280;52789;59.980;30.346;2022-10-17T08:29:18;100693.97;;;8.49;100.00
66021;BME280;52789;59.980;30.346;2022-10-17T08:31:43;100693.69;;;8.52;100.00
66021;BME280;52789;59.980;30.346;2022-10-17T08:34:09;100712.34;;;8.60;100.00
66021;BME280;52789;59.980;30.346;2022-10-17T08:36:35;100725.28;;;8.63;100.00
66021;BME280;52789;59.980;30.346;2022-10-17T08:39:00;100713.84;;;8.62;100.00
66021;BME280;52789;59.980;30.346;2022-10-17T08:46:54;100739.41;;;8.63;100.00
66021;BME280;52789;59.980;30.346;2022-10-17T08:52:02;100751.88;;;8.81;100.00
66021;BME280;52789;59.980;30.346;2022-10-17T08:54:46;100771.53;;;8.88;100.00
66021;BME280;52789;59.980;30.346;2022-10-17T08:57:14;100756.88;;;8.84;100.00
66021;BME280;52789;59.980;30.346;2022-10-17T08:59:41;100763.56;;;8.88;100.00
66021;BME280;52789;59.980;30.346;2022-10-17T09:20:50;100826.47;;;9.23;100.00
66021;BME280;52789;59.980;30.346;2022-10-17T09:23:22;100841.72;;;9.21;100.00
66021;BME280;52789;59.980;30.346;2022-10-17T09:25:56;100851.69;;;9.19;100.00
66021;BME280;52789;59.980;30.346;2022-10-17T09:28:28;100831.25;;;9.19;100.00
66021;BME280;52789;59.980;30.346;2022-10-17T09:31:05;100868.84;;;9.24;100.00
66021;BME280;52789;59.980;30.346;2022-10-17T09:33:42;100878.03;;;9.30;100.00
66021;BME280;52789;59.980;30.346;2022-10-17T09:36:17;100886.59;;;9.24;100.00
66021;BME280;52789;59.980;30.346;2022-10-17T09:39:26;100893.31;;;9.28;100.00
66021;BME280;52789;59.980;30.346;2022-10-17T09:44:28;100905.47;;;9.30;100.00
66021;BME280;52789;59.980;30.346;2022-10-17T09:49:30;100938.34;;;9.29;100.00
66021;BME280;52789;59.980;30.346;2022-10-17T09:51:56;100935.22;;;9.34;100.00
66021;BME280;52789;59.980;30.346;2022-10-17T09:54:32;100957.63;;;9.31;100.00
66021;BME280;52789;59.980;30.346;2022-10-17T09:57:06;100940.00;;;9.30;100.00
66021;BME280;52789;59.980;30.346;2022-10-17T09:59:35;100943.13;;;9.26;100.00
66021;BME280;52789;59.980;30.346;2022-10-17T10:04:33;100954.03;;;9.23;100.00
66021;BME280;52789;59.980;30.346;2022-10-17T10:07:04;100979.19;;;9.28;100.00
66021;BME280;52789;59.980;30.346;2022-10-17T10:09:33;101002.50;;;9.35;100.00
66021;BME280;52789;59.980;30.346;2022-10-17T10:12:04;100971.59;;;9.34;100.00
66021;BME280;52789;59.980;30.346;2022-10-17T10:14:35;100995.06;;;9.38;100.00
66021;BME280;52789;59.980;30.346;2022-10-17T10:19:49;101014.66;;;9.37;100.00
66021;BME280;52789;59.980;30.346;2022-10-17T10:22:17;101014.81;;;9.36;100.00
66021;BME280;52789;59.980;30.346;2022-10-17T10:24:43;101020.88;;;9.28;100.00
66021;BME280;52789;59.980;30.346;2022-10-17T10:27:16;101029.41;;;9.22;100.00
66021;BME280;52789;59.980;30.346;2022-10-17T10:29:50;101029.56;;;9.20;100.00
66021;BME280;52789;59.980;30.346;2022-10-17T10:32:27;101034.72;;;9.22;100.00
66021;BME280;52789;59.980;30.346;2022-10-17T10:34:58;101042.72;;;9.22;100.00
66021;BME280;52789;59.980;30.346;2022-10-17T10:37:28;101043.13;;;9.27;100.00
66021;BME280;52789;59.980;30.346;2022-10-17T10:40:00;101085.06;;;9.33;100.00
66021;BME280;52789;59.980;30.346;2022-10-17T10:42:34;101053.56;;;9.38;100.00
66021;BME280;52789;59.980;30.346;2022-10-17T10:47:38;101078.25;;;9.48;100.00
66021;BME280;52789;59.980;30.346;2022-10-17T10:55:36;101096.38;;;9.62;100.00
66021;BME280;52789;59.980;30.346;2022-10-17T11:00:51;101102.41;;;9.65;100.00
66021;BME280;52789;59.980;30.346;2022-10-17T11:03:22;101108.25;;;9.68;100.00
66021;BME280;52789;59.980;30.346;2022-10-17T11:05:59;101134.41;;;9.73;100.00
66021;BME280;52789;59.980;30.346;2022-10-17T11:08:42;101129.75;;;9.75;100.00
66021;BME280;52789;59.980;30.346;2022-10-17T11:11:12;101151.72;;;9.77;100.00
66021;BME280;52789;59.980;30.346;2022-10-17T11:14:04;101158.28;;;9.82;100.00
66021;BME280;52789;59.980;30.346;2022-10-17T11:16:55;101149.47;;;9.82;99.34
66021;BME280;52789;59.980;30.346;2022-10-17T11:19:29;101165.16;;;9.85;99.66
66021;BME280;52789;59.980;30.346;2022-10-17T11:22:19;101189.94;;;9.85;99.34
66021;BME280;52789;59.980;30.346;2022-10-17T11:24:52;101177.63;;;9.84;98.56
66021;BME280;52789;59.980;30.346;2022-10-17T11:27:27;101186.13;;;9.88;99.60
66021;BME280;52789;59.980;30.346;2022-10-17T11:29:54;101179.56;;;9.82;100.00
66021;BME280;52789;59.980;30.346;2022-10-17T11:34:55;101204.16;;;9.94;99.87
66021;BME280;52789;59.980;30.346;2022-10-17T11:37:37;101210.31;;;9.94;99.46
66021;BME280;52789;59.980;30.346;2022-10-17T11:43:14;101202.19;;;9.96;99.29
66021;BME280;52789;59.980;30.346;2022-10-17T11:45:45;101210.03;;;9.98;99.27
66021;BME280;52789;59.980;30.346;2022-10-17T11:48:25;101232.44;;;9.95;98.93
66021;BME280;52789;59.980;30.346;2022-10-17T11:51:01;101249.00;;;9.89;97.37
66021;BME280;52789;59.980;30.346;2022-10-17T11:53:41;101243.09;;;9.95;97.46
66021;BME280;52789;59.980;30.346;2022-10-17T11:56:09;101233.38;;;10.04;97.41
66021;BME280;52789;59.980;30.346;2022-10-17T11:58:38;101258.13;;;10.14;97.32
66021;BME280;52789;59.980;30.346;2022-10-17T12:03:41;101261.50;;;10.16;96.95
66021;BME280;52789;59.980;30.346;2022-10-17T12:17:29;101276.16;;;10.30;96.08
66021;BME280;52789;59.980;30.346;2022-10-17T12:25:20;101310.06;;;10.28;95.61
66021;BME280;52789;59.980;30.346;2022-10-17T12:27:47;101291.59;;;10.26;95.67
66021;BME280;52789;59.980;30.346;2022-10-17T12:30:25;101292.41;;;10.27;96.04
66021;BME280;52789;59.980;30.346;2022-10-17T12:35:38;101297.78;;;10.07;95.50
66021;BME280;52789;59.980;30.346;2022-10-17T12:45:48;101315.09;;;10.31;96.23
66021;BME280;52789;59.980;30.346;2022-10-17T12:51:17;101333.72;;;10.31;96.17
66021;BME280;52789;59.980;30.346;2022-10-17T12:56:08;101340.19;;;10.28;96.50
66021;BME280;52789;59.980;30.346;2022-10-17T12:58:34;101328.47;;;10.21;96.43
66021;BME280;52789;59.980;30.346;2022-10-17T13:01:01;101339.66;;;10.24;95.90
66021;BME280;52789;59.980;30.346;2022-10-17T13:03:31;101352.81;;;10.26;96.67
66021;BME280;52789;59.980;30.346;2022-10-17T13:06:05;101355.47;;;10.26;96.77
66021;BME280;52789;59.980;30.346;2022-10-17T13:08:43;101360.81;;;10.16;96.84
66021;BME280;52789;59.980;30.346;2022-10-17T13:11:09;101367.09;;;10.25;95.94
66021;BME280;52789;59.980;30.346;2022-10-17T13:16:06;101383.06;;;10.25;96.45
66021;BME280;52789;59.980;30.346;2022-10-17T13:18:32;101377.22;;;10.21;96.57
66021;BME280;52789;59.980;30.346;2022-10-17T13:24:34;101382.78;;;10.18;96.45
66021;BME280;52789;59.980;30.346;2022-10-17T13:27:00;101384.22;;;10.22;96.00
66021;BME280;52789;59.980;30.346;2022-10-17T13:29:35;101391.75;;;10.17;96.38
66021;BME280;52789;59.980;30.346;2022-10-17T13:32:09;101413.06;;;10.17;96.46
66021;BME280;52789;59.980;30.346;2022-10-17T13:34:35;101393.44;;;10.09;96.88
66021;BME280;52789;59.980;30.346;2022-10-17T13:37:04;101410.00;;;10.12;96.82
66021;BME280;52789;59.980;30.346;2022-10-17T13:39:36;101410.00;;;10.12;96.67
66021;BME280;52789;59.980;30.346;2022-10-17T13:42:03;101412.50;;;10.14;96.63
66021;BME280;52789;59.980;30.346;2022-10-17T13:44:32;101427.06;;;10.19;96.45
66021;BME280;52789;59.980;30.346;2022-10-17T13:46:58;101424.00;;;10.14;96.60
66021;BME280;52789;59.980;30.346;2022-10-17T13:49:33;101407.75;;;10.08;96.56
66021;BME280;52789;59.980;30.346;2022-10-17T13:52:00;101417.00;;;10.04;95.70
66021;BME280;52789;59.980;30.346;2022-10-17T13:54:53;101429.31;;;10.14;96.30
66021;BME280;52789;59.980;30.346;2022-10-17T13:59:48;101428.34;;;10.06;96.81
66021;BME280;52789;59.980;30.346;2022-10-17T14:02:51;101447.50;;;10.09;97.15
66021;BME280;52789;59.980;30.346;2022-10-17T14:05:18;101433.09;;;10.02;97.37
66021;BME280;52789;59.980;30.346;2022-10-17T14:10:46;101457.06;;;10.02;97.76
66021;BME280;52789;59.980;30.346;2022-10-17T14:13:24;101462.81;;;9.98;98.53
66021;BME280;52789;59.980;30.346;2022-10-17T14:15:51;101454.41;;;9.83;98.17
66021;BME280;52789;59.980;30.346;2022-10-17T14:18:21;101463.38;;;9.91;98.01
66021;BME280;52789;59.980;30.346;2022-10-17T14:20:49;101469.13;;;9.87;98.05
66021;BME280;52789;59.980;30.346;2022-10-17T14:23:36;101454.56;;;9.91;98.50
66021;BME280;52789;59.980;30.346;2022-10-17T14:26:18;101464.34;;;9.90;98.64
66021;BME280;52789;59.980;30.346;2022-10-17T14:29:00;101469.81;;;9.89;97.53
66021;BME280;52789;59.980;30.346;2022-10-17T14:31:34;101467.44;;;9.86;98.19
66021;BME280;52789;59.980;30.346;2022-10-17T14:34:02;101460.69;;;9.82;98.15
66021;BME280;52789;59.980;30.346;2022-10-17T14:36:31;101479.78;;;9.87;98.43
66021;BME280;52789;59.980;30.346;2022-10-17T14:38:57;101473.59;;;9.86;97.80
66021;BME280;52789;59.980;30.346;2022-10-17T14:41:24;101503.56;;;9.88;98.15
66021;BME280;52789;59.980;30.346;2022-10-17T14:43:56;101501.91;;;9.87;98.14
66021;BME280;52789;59.980;30.346;2022-10-17T14:46:24;101491.78;;;9.81;98.33
66021;BME280;52789;59.980;30.346;2022-10-17T14:48:52;101502.72;;;9.88;98.10
66021;BME280;52789;59.980;30.346;2022-10-17T14:51:19;101499.63;;;9.83;97.60
66021;BME280;52789;59.980;30.346;2022-10-17T14:54:44;101500.50;;;9.83;97.96
66021;BME280;52789;59.980;30.346;2022-10-17T14:56:51;101515.88;;;9.80;97.33
66021;BME280;52789;59.980;30.346;2022-10-17T14:59:18;101511.25;;;9.82;97.47
66021;BME280;52789;59.980;30.346;2022-10-17T15:01:51;101498.78;;;9.73;97.78
66021;BME280;52789;59.980;30.346;2022-10-17T15:04:17;101505.22;;;9.80;97.46
66021;BME280;52789;59.980;30.346;2022-10-17T15:06:43;101511.97;;;9.84;97.27
66021;BME280;52789;59.980;30.346;2022-10-17T15:09:12;101506.66;;;9.84;97.23
66021;BME280;52789;59.980;30.346;2022-10-17T15:11:38;101523.16;;;9.78;96.90
66021;BME280;52789;59.980;30.346;2022-10-17T15:14:03;101508.88;;;9.79;97.11